Quick Links (Output Below):   Max & Min Temps   /   Climate Reports   /   Zone Forecasts
River Forecasts   /   Forestry Forecasts   /   Aviation Forecasts   /   Radars   /   Features

Terminal Aerodrome Forecast (Harrison)

Pick a Site:
Arkadelphia | El Dorado | Fayetteville | Fort Smith | Harrison | Highfill | Hot Springs | Jonesboro
Little Rock | Monticello | Mountain Home | Pine Bluff | Texarkana
 Forecast 

KHRO 231943Z 2320/2418 17009KT P6SM SCT035 BKN250
     FM240100 16007KT P6SM BKN250
     FM241400 22012KT P6SM BKN250=


 Latest METARs (Observations) 
How to Decode METARs
20Z KHRO 231953Z AUTO 19009KT 10SM CLR 29/22 A3016 RMK AO2 SLP197
         T02890217
         
19Z KHRO 231853Z AUTO 17010KT 10SM CLR 28/21 A3017 RMK AO2 SLP201
         T02780211
         
18Z KHRO 231753Z AUTO 17010KT 10SM FEW030 FEW035 FEW110 28/22 A3017
         RMK AO2 SLP203 T02780222 10289 20206 58005
         
17Z KHRO 231653Z AUTO 17009KT 10SM FEW026 28/23 A3018 RMK AO2 SLP205
         T02830228
         
16Z KHRO 231553Z AUTO 16009KT 10SM CLR 27/22 A3019 RMK AO2 SLP208
         T02670222
         
15Z KHRO 231453Z AUTO 17009KT 10SM CLR 25/22 A3019 RMK AO2 SLP210
         T02500222 51007
         
14Z KHRO 231353Z AUTO 13006KT 9SM OVC070 22/21 A3019 RMK AO2 SLP209
         T02220211
         
13Z KHRO 231253Z AUTO 15006KT 6SM BR OVC070 21/21 A3018 RMK AO2 SLP206
         T02110206
         
12Z KHRO 231153Z AUTO 13004KT 7SM SCT055 SCT070 BKN085 21/20 A3017 RMK
         AO2 SLP202 T02060200 10206 20194 53010
         
11Z KHRO 231053Z AUTO 15003KT 8SM CLR 20/19 A3015 RMK AO2 SLP195
         T02000194
         
***** Today's Observations (Above) *****


Back to Main Page
http://www.srh.noaa.gov/lzk/qfcst.php

USA.gov is the U.S. government's official web portal to all federal, state and local government web resources and services.